< < Back
Terminal Aerodrome Forecast


Current Version              Previous Versions:   1  2  3  4  5  6  7  8  9  

Terminal Aerodrome Forecast

738
FTUS42 KGSP 270332 AAB
TAFHKY
TAF AMD
KHKY 270332Z 2704/2724 06006KT P6SM SCT022 BKN070
      TEMPO 2704/2706 6SM BR SCT022 BKN035
     FM270600 00000KT P6SM VCSH SCT030 OVC070
     FM271200 31006KT P6SM SCT050 BKN100
     FM271700 31010G18KT P6SM SCT100=



Latest METAR

668
SAUS70 KWBC 270400 RRB
MTRHKY
METAR KHKY 270353Z AUTO 08004KT 9SM FEW003 BKN024 06/05 A2999 RMK AO2
SLP150 T00610050


USA.gov is the U.S. government's official web portal to all federal, state and local government web resources and services.